Bugul'Ma, Russia
Current Conditions -  °F | °C
As of 11:00 PM on Wednesday 26 Nov 2014 (Local Time) from UWKE Reporting Station
Overcast Overcast  
Wind Chill:   Ceiling: 500
Heat Index: 18°   Visibility: 4mi
Dew Point: 16°   Wind: 9mph
Humidity: 93%   Direction: 240°WSW
Pressure: 30.33"   Gusts: NA
Location:  54.5°N, 52.87°E
Report Text: UWKE 262000Z 24004MPS 7000 OVC005 M08/M09 Q1027 NOSIG RMK QBB160 QFE753/1004 21410365
Loading
Personal Weather Stations






























Interactive Weather Map New forecast layout! Learn more

10-Day Weather Forecast

Advertisements
Track Severe Weather on mobile